Time,TemperatureF,DewpointF,PressureIn,WindDirection,WindDirectionDegrees,WindSpeedMPH,WindSpeedGustMPH,Humidity,HourlyPrecipIn,Conditions,Clouds,dailyrainin,SoftwareType,DateUTC
2013-01-14 00:00:00,26.4,18.6,29.35,WSW,244,2.0,8.0,72,0.00,,,0.00,Weather View 32 v70,2013-01-14 05:00:00,
2013-01-14 00:20:00,25.7,16.3,29.38,WSW,238,3.0,8.0,67,0.00,,,0.00,Weather View 32 v70,2013-01-14 05:20:00,
2013-01-14 00:40:00,25.3,16.3,29.38,NW,313,6.0,8.0,68,0.00,,,0.00,Weather View 32 v70,2013-01-14 05:40:00,
2013-01-14 01:00:00,25.0,15.2,29.38,West,270,4.0,9.0,66,0.00,,,0.00,Weather View 32 v70,2013-01-14 06:00:00,
2013-01-14 01:20:00,25.0,16.2,29.41,SW,222,0.0,9.0,69,0.00,,,0.00,Weather View 32 v70,2013-01-14 06:20:00,
2013-01-14 01:40:00,24.6,15.2,29.41,NW,324,3.0,11.0,67,0.00,,,0.00,Weather View 32 v70,2013-01-14 06:40:00,
2013-01-14 02:00:00,24.4,14.7,29.44,South,183,3.0,11.0,66,0.00,,,0.00,Weather View 32 v70,2013-01-14 07:00:00,
2013-01-14 02:20:00,24.3,14.2,29.44,SW,218,3.0,11.0,65,0.00,,,0.00,Weather View 32 v70,2013-01-14 07:20:00,
2013-01-14 02:40:00,24.3,14.5,29.47,NW,312,4.0,8.0,66,0.00,,,0.00,Weather View 32 v70,2013-01-14 07:40:00,
2013-01-14 03:00:00,24.1,15.0,29.47,NW,324,4.0,9.0,68,0.00,,,0.00,Weather View 32 v70,2013-01-14 08:00:00,
2013-01-14 03:20:00,23.9,14.5,29.50,NW,305,2.0,9.0,67,0.00,,,0.00,Weather View 32 v70,2013-01-14 08:20:00,
2013-01-14 03:40:00,23.7,14.4,29.50,SW,218,3.0,9.0,67,0.00,,,0.00,Weather View 32 v70,2013-01-14 08:40:00,
2013-01-14 04:00:00,23.2,12.1,29.50,SW,223,3.0,6.0,62,0.00,,,0.00,Weather View 32 v70,2013-01-14 09:00:00,
2013-01-14 04:20:00,23.4,13.7,29.53,SSW,204,3.0,6.0,66,0.00,,,0.00,Weather View 32 v70,2013-01-14 09:20:00,
2013-01-14 04:40:00,23.4,14.0,29.53,West,267,3.0,6.0,67,0.00,,,0.00,Weather View 32 v70,2013-01-14 09:40:00,
2013-01-14 05:00:00,23.0,13.0,29.56,NW,319,3.0,6.0,65,0.00,,,0.00,Weather View 32 v70,2013-01-14 10:00:00,
2013-01-14 05:20:00,22.5,12.1,29.56,North,353,3.0,8.0,64,0.00,,,0.00,Weather View 32 v70,2013-01-14 10:20:00,
2013-01-14 05:40:00,21.9,11.6,29.56,West,272,4.0,8.0,64,0.00,,,0.00,Weather View 32 v70,2013-01-14 10:40:00,
2013-01-14 06:00:00,21.6,10.6,29.59,North,349,4.0,8.0,62,0.00,,,0.00,Weather View 32 v70,2013-01-14 11:00:00,
2013-01-14 06:20:00,21.2,9.9,29.56,SW,228,5.0,8.0,61,0.00,,,0.00,Weather View 32 v70,2013-01-14 11:20:00,
2013-01-14 06:40:00,21.0,8.6,29.59,WSW,256,4.0,8.0,58,0.00,,,0.00,Weather View 32 v70,2013-01-14 11:40:00,
2013-01-14 07:00:00,21.2,9.9,29.59,WSW,251,0.0,9.0,61,0.00,,,0.00,Weather View 32 v70,2013-01-14 12:00:00,
2013-01-14 07:20:00,21.4,10.7,29.59,SSE,153,3.0,9.0,63,0.00,,,0.00,Weather View 32 v70,2013-01-14 12:20:00,
2013-01-14 07:40:00,21.0,7.8,29.62,NW,318,4.0,9.0,56,0.00,,,0.00,Weather View 32 v70,2013-01-14 12:40:00,
2013-01-14 08:00:00,20.3,6.3,29.62,NW,326,3.0,8.0,54,0.00,,,0.00,Weather View 32 v70,2013-01-14 13:00:00,
2013-01-14 08:20:00,19.6,6.0,29.62,NNW,335,3.0,8.0,55,0.00,,,0.00,Weather View 32 v70,2013-01-14 13:20:00,
2013-01-14 08:40:00,19.6,6.4,29.65,NW,306,0.0,8.0,56,0.00,,,0.00,Weather View 32 v70,2013-01-14 13:40:00,
2013-01-14 09:00:00,19.8,7.4,29.65,West,274,0.0,6.0,58,0.00,,,0.00,Weather View 32 v70,2013-01-14 14:00:00,
2013-01-14 09:20:00,21.0,8.6,29.68,North,353,3.0,6.0,58,0.00,,,0.00,Weather View 32 v70,2013-01-14 14:20:00,
2013-01-14 09:40:00,21.0,8.9,29.68,North,0,3.0,6.0,59,0.00,,,0.00,Weather View 32 v70,2013-01-14 14:40:00,
2013-01-14 10:00:00,20.3,7.5,29.68,NW,325,4.0,10.0,57,0.00,,,0.00,Weather View 32 v70,2013-01-14 15:00:00,
2013-01-14 10:20:00,20.5,7.3,29.68,NE,51,5.0,10.0,56,0.00,,,0.00,Weather View 32 v70,2013-01-14 15:20:00,
2013-01-14 10:40:00,20.8,7.2,29.68,WNW,284,6.0,10.0,55,0.00,,,0.00,Weather View 32 v70,2013-01-14 15:40:00,
2013-01-14 10:45:00,20.8,7.2,29.68,WNW,284,6.0,10.0,55,0.00,,,0.00,Weather View 32 v70,2013-01-14 15:45:00,
2013-01-14 11:00:00,21.4,6.5,29.68,WNW,283,6.0,10.0,52,0.00,,,0.00,Weather View 32 v70,2013-01-14 16:00:00,
2013-01-14 11:20:00,22.6,7.7,29.68,NNW,327,4.0,11.0,52,0.00,,,0.00,Weather View 32 v70,2013-01-14 16:20:00,
2013-01-14 11:40:00,22.1,6.3,29.68,NNE,28,2.0,11.0,50,0.00,,,0.00,Weather View 32 v70,2013-01-14 16:40:00,
2013-01-14 11:46:00,22.1,6.3,29.68,NNE,28,2.0,11.0,50,0.00,,,0.00,Weather View 32 v70,2013-01-14 16:46:00,
2013-01-14 12:00:00,23.0,6.2,29.68,NNW,332,6.0,11.0,48,0.00,,,0.00,Weather View 32 v70,2013-01-14 17:00:00,
2013-01-14 12:20:00,21.9,5.7,29.65,NNW,345,5.0,10.0,49,0.00,,,0.00,Weather View 32 v70,2013-01-14 17:20:00,
2013-01-14 12:40:00,24.4,6.1,29.65,WNW,297,4.0,10.0,45,0.00,,,0.00,Weather View 32 v70,2013-01-14 17:40:00,
2013-01-14 12:46:00,24.4,6.1,29.65,WNW,297,4.0,10.0,45,0.00,,,0.00,Weather View 32 v70,2013-01-14 17:46:00,
2013-01-14 13:00:00,24.8,6.9,29.65,WSW,252,3.0,10.0,46,0.00,,,0.00,Weather View 32 v70,2013-01-14 18:00:00,
2013-01-14 13:20:00,24.4,6.6,29.65,North,353,4.0,7.0,46,0.00,,,0.00,Weather View 32 v70,2013-01-14 18:20:00,
2013-01-14 13:40:00,25.0,7.1,29.65,NNW,334,0.0,7.0,46,0.00,,,0.00,Weather View 32 v70,2013-01-14 18:40:00,
2013-01-14 13:47:00,25.0,7.1,29.65,NNW,334,0.0,7.0,46,0.00,,,0.00,Weather View 32 v70,2013-01-14 18:47:00,
2013-01-14 14:00:00,27.0,7.4,29.65,North,350,5.0,7.0,43,0.00,,,0.00,Weather View 32 v70,2013-01-14 19:00:00,
2013-01-14 14:20:00,25.9,6.4,29.65,WSW,255,4.0,7.0,43,0.00,,,0.00,Weather View 32 v70,2013-01-14 19:20:00,
2013-01-14 14:40:00,24.3,6.4,29.68,NW,324,0.0,7.0,46,0.00,,,0.00,Weather View 32 v70,2013-01-14 19:40:00,
2013-01-14 14:48:00,24.3,6.4,29.68,NW,324,0.0,7.0,46,0.00,,,0.00,Weather View 32 v70,2013-01-14 19:48:00,
2013-01-14 15:00:00,24.1,6.8,29.68,NNW,329,3.0,6.0,47,0.00,,,0.00,Weather View 32 v70,2013-01-14 20:00:00,
2013-01-14 15:20:00,24.8,6.5,29.68,NNW,335,0.0,6.0,45,0.00,,,0.00,Weather View 32 v70,2013-01-14 20:20:00,
2013-01-14 15:40:00,24.1,6.8,29.71,NNW,346,3.0,6.0,47,0.00,,,0.00,Weather View 32 v70,2013-01-14 20:40:00,
2013-01-14 15:49:00,24.1,6.8,29.71,NNW,346,3.0,6.0,47,0.00,,,0.00,Weather View 32 v70,2013-01-14 20:49:00,
2013-01-14 16:00:00,23.9,7.5,29.68,NNE,21,3.0,6.0,49,0.00,,,0.00,Weather View 32 v70,2013-01-14 21:00:00,
2013-01-14 16:20:00,23.7,7.8,29.71,WNW,290,0.0,6.0,50,0.00,,,0.00,Weather View 32 v70,2013-01-14 21:20:00,
2013-01-14 16:40:00,23.5,8.1,29.71,NNW,330,0.0,6.0,51,0.00,,,0.00,Weather View 32 v70,2013-01-14 21:40:00,
2013-01-14 17:00:00,23.4,8.3,29.71,NW,317,0.0,4.0,52,0.00,,,0.00,Weather View 32 v70,2013-01-14 22:00:00,
2013-01-14 17:20:00,23.2,8.6,29.74,SSW,212,0.0,4.0,53,0.00,,,0.00,Weather View 32 v70,2013-01-14 22:20:00,
2013-01-14 17:40:00,23.0,8.8,29.71,West,273,0.0,4.0,54,0.00,,,0.00,Weather View 32 v70,2013-01-14 22:40:00,
2013-01-14 18:00:00,21.9,7.8,29.71,SW,214,0.0,3.0,54,0.00,,,0.00,Weather View 32 v70,2013-01-14 23:00:00,
2013-01-14 18:20:00,21.4,7.3,29.71,SW,214,0.0,3.0,54,0.00,,,0.00,Weather View 32 v70,2013-01-14 23:20:00,
2013-01-14 18:40:00,20.5,7.3,29.71,SW,214,0.0,3.0,56,0.00,,,0.00,Weather View 32 v70,2013-01-14 23:40:00,
2013-01-14 19:00:00,19.2,6.9,29.71,SW,214,0.0,0.0,58,0.00,,,0.00,Weather View 32 v70,2013-01-15 00:00:00,
2013-01-14 19:20:00,18.7,7.5,29.71,SW,214,0.0,0.0,61,0.00,,,0.00,Weather View 32 v70,2013-01-15 00:20:00,
2013-01-14 19:40:00,17.8,7.3,29.71,SW,214,0.0,0.0,63,0.00,,,0.00,Weather View 32 v70,2013-01-15 00:40:00,
2013-01-14 20:00:00,17.6,7.8,29.71,SW,214,0.0,0.0,65,0.00,,,0.00,Weather View 32 v70,2013-01-15 01:00:00,
2013-01-14 20:20:00,16.7,7.3,29.71,SW,214,0.0,0.0,66,0.00,,,0.00,Weather View 32 v70,2013-01-15 01:20:00,
2013-01-14 20:40:00,16.5,7.8,29.68,SW,214,0.0,0.0,68,0.00,,,0.00,Weather View 32 v70,2013-01-15 01:40:00,
2013-01-14 21:00:00,15.8,7.4,29.68,SW,214,0.0,0.0,69,0.00,,,0.00,Weather View 32 v70,2013-01-15 02:00:00,
2013-01-14 21:20:00,16.0,8.6,29.71,SW,214,0.0,0.0,72,0.00,,,0.00,Weather View 32 v70,2013-01-15 02:20:00,
2013-01-14 21:40:00,16.5,9.7,29.71,SW,214,0.0,0.0,74,0.00,,,0.00,Weather View 32 v70,2013-01-15 02:40:00,
2013-01-14 22:00:00,16.3,9.5,29.68,SW,214,0.0,0.0,74,0.00,,,0.00,Weather View 32 v70,2013-01-15 03:00:00,
2013-01-14 22:20:00,15.3,7.9,29.68,SW,214,0.0,0.0,72,0.00,,,0.00,Weather View 32 v70,2013-01-15 03:20:00,
2013-01-14 22:40:00,15.3,7.9,29.68,SW,214,0.0,0.0,72,0.00,,,0.00,Weather View 32 v70,2013-01-15 03:40:00,
2013-01-14 23:00:00,15.3,7.9,29.68,SW,214,0.0,0.0,72,0.00,,,0.00,Weather View 32 v70,2013-01-15 04:00:00,
2013-01-14 23:20:00,15.6,8.2,29.68,SW,214,0.0,0.0,72,0.00,,,0.00,Weather View 32 v70,2013-01-15 04:20:00,
2013-01-14 23:40:00,15.6,8.2,29.68,SW,214,0.0,0.0,72,0.00,,,0.00,Weather View 32 v70,2013-01-15 04:40:00,